Flight Information

DEPARTURE
TONOPAH, NV
Elevation:
5429
Runways:
11/29 - 6195x50 - ASPH-L
15/33 - 7158x80 - ASPH-E
H1 - 48x48 - ASPH-G
CTAF:
123.000
DESTINATION
,
Elevation:
TPA:
1000 (est.)


6660.3 NM73° True-15° Var57° HDG

Flight Plan:
(click to file on line)

1. Type
2. Aircraft Identification
3. Aircraft Type / Special Equipment
4. True Airspeed
kts
5. Departure Airport
(ICAO code)
6. Arriving Airport
(ICAO code)
7. Cruising Altitude
ft
8. Alternate Airport
(ICAO code)
9. Route of Flight
10. Remarks


00:00:00 Departure ATIS: Destination ATIS:

Clearance Limit:
Route:
Altitude: Expect in minutes
Frequency:
Transponder: (7500 Hijack / 7600 Lost Comms / 7700 Emergency)


KTPH 110256Z AUTO 34011KT 10SM CLR 16/M14 A2995 RMK AO2 SLP103 T01561139 55003
Time: 2021-04-11T02:56:00Z
1618112156
Winds: 340 @ 11 kts
Visibility: 10.0 sm
Clouds (AGL): CLR
Temperature: 15.6 C
Dew Point: -13.9 C
Pressure: 29.949802 in Hgbr


Notes:

Data extracted from FAA Digital Chart Supplement. Effective: 0901Z Thursday, Feb 25, 2021 to 0901Z Thursday, APR 22, 2021
Current ATIS data is provided courtisy of PilotEdge.